Time;durP1;ratioP1;P1;durP2;ratioP2;P2;SDS_P1;SDS_P2;PMS_P1;PMS_P2;Temp;Humidity;BMP_temperature;BMP_pressure;BME280_temperature;BME280_humidity;BME280_pressure;Samples;Min_cycle;Max_cycle;Signal;HPM_P1;HPM_P2
2021/10/15 00:01:00;;;;;;;5.78;3.88;;;;;;;8.32;74.55;96768.25;5089348;28;20040;-75
2021/10/15 00:03:26;;;;;;;6.38;3.70;;;;;;;8.26;74.36;96769.44;5088863;28;20510;-75
2021/10/15 00:05:54;;;;;;;6.97;4.18;;;;;;;8.19;74.92;96768.16;5088747;28;20040;-75
2021/10/15 00:08:21;;;;;;;5.68;4.18;;;;;;;8.14;75.40;96762.81;5088960;28;20044;-75
2021/10/15 00:10:47;;;;;;;5.53;3.78;;;;;;;8.05;75.68;96760.75;5088298;28;20674;-75
2021/10/15 00:13:14;;;;;;;6.43;3.72;;;;;;;7.99;75.88;96761.94;5088991;28;20714;-75
2021/10/15 00:15:40;;;;;;;5.63;3.83;;;;;;;7.92;75.93;96760.66;5087734;28;20052;-75
2021/10/15 00:18:07;;;;;;;5.82;3.58;;;;;;;7.87;75.94;96758.81;5088908;28;20044;-74
2021/10/15 00:20:33;;;;;;;6.35;4.43;;;;;;;7.87;75.63;96761.53;5087972;28;20663;-76
2021/10/15 00:23:01;;;;;;;5.55;3.83;;;;;;;7.85;76.30;96761.03;5090766;28;20059;-75
2021/10/15 00:25:28;;;;;;;5.88;4.38;;;;;;;7.82;75.77;96750.75;5088104;28;20415;-75
2021/10/15 00:27:54;;;;;;;6.40;4.45;;;;;;;7.76;76.36;96746.47;5088643;28;20048;-75
2021/10/15 00:30:21;;;;;;;5.90;3.92;;;;;;;7.69;76.46;96746.03;5088059;28;20430;-75
2021/10/15 00:32:47;;;;;;;5.72;4.03;;;;;;;7.66;76.72;96735.75;5088322;28;20040;-75
2021/10/15 00:35:14;;;;;;;6.38;4.00;;;;;;;7.68;76.11;96739.81;5088448;28;20051;-75
2021/10/15 00:37:40;;;;;;;5.85;3.95;;;;;;;7.67;75.95;96735.47;5087765;28;20051;-75
2021/10/15 00:40:09;;;;;;;7.90;4.00;;;;;;;7.58;75.53;96738.03;5088201;28;20044;-75
2021/10/15 00:42:37;;;;;;;7.28;4.13;;;;;;;7.50;76.41;96722.41;5087818;28;20059;-75
2021/10/15 00:45:04;;;;;;;6.07;4.20;;;;;;;7.42;76.77;96725.75;5087626;28;20040;-74
2021/10/15 00:47:30;;;;;;;9.07;4.68;;;;;;;7.39;77.01;96723.63;5087744;28;20403;-75
2021/10/15 00:49:57;;;;;;;7.05;4.50;;;;;;;7.39;77.66;96730.94;5088362;28;20137;-74
2021/10/15 00:52:23;;;;;;;8.10;4.65;;;;;;;7.38;77.55;96729.34;5083214;28;20048;-74
2021/10/15 00:54:50;;;;;;;8.07;4.25;;;;;;;7.36;77.72;96726.91;5087827;28;20050;-76
2021/10/15 00:57:19;;;;;;;6.45;3.97;;;;;;;7.34;77.74;96723.66;5083742;28;20059;-75
2021/10/15 00:59:45;;;;;;;6.80;4.40;;;;;;;7.33;76.94;96727.47;5086165;28;20048;-76
2021/10/15 01:02:12;;;;;;;6.15;4.30;;;;;;;7.32;76.99;96721.25;5088086;28;20036;-75
2021/10/15 01:04:39;;;;;;;8.57;4.93;;;;;;;7.30;76.54;96718.00;5087578;28;20050;-75
2021/10/15 01:07:05;;;;;;;8.80;4.53;;;;;;;7.21;76.49;96710.84;5087639;28;20055;-76
2021/10/15 01:09:33;;;;;;;7.80;4.40;;;;;;;7.16;76.75;96708.16;5087430;28;20043;-75
2021/10/15 01:12:01;;;;;;;7.20;4.70;;;;;;;7.11;77.13;96703.63;5088385;28;20048;-75
2021/10/15 01:14:30;;;;;;;10.05;4.60;;;;;;;7.06;77.29;96701.75;5087296;28;20044;-75
2021/10/15 01:16:57;;;;;;;7.85;4.82;;;;;;;7.03;77.60;96696.91;5087327;28;20043;-75
2021/10/15 01:19:23;;;;;;;6.97;4.57;;;;;;;7.01;77.66;96690.19;5087707;28;20051;-74
2021/10/15 01:21:51;;;;;;;7.60;4.63;;;;;;;6.98;78.03;96691.53;5087506;28;20048;-77
2021/10/15 01:24:18;;;;;;;7.20;4.70;;;;;;;6.98;77.91;96688.03;5087810;28;20056;-76
2021/10/15 01:26:44;;;;;;;8.43;4.53;;;;;;;6.95;77.60;96686.72;5086998;28;20132;-75
2021/10/15 01:29:11;;;;;;;6.80;3.97;;;;;;;6.91;77.81;96677.56;5091067;28;20057;-75
2021/10/15 01:31:38;;;;;;;7.45;3.92;;;;;;;6.85;77.83;96667.88;5086989;28;20060;-77
2021/10/15 01:34:05;;;;;;;8.00;4.22;;;;;;;6.82;77.62;96663.03;5087528;28;20793;-75
2021/10/15 01:36:31;;;;;;;6.55;4.43;;;;;;;6.79;77.75;96669.03;5087366;28;20048;-75
2021/10/15 01:38:59;;;;;;;6.55;4.00;;;;;;;6.75;77.71;96671.47;5087775;28;20047;-75
2021/10/15 01:41:26;;;;;;;6.95;4.32;;;;;;;6.72;78.02;96663.91;5086515;28;20414;-76
2021/10/15 01:43:52;;;;;;;8.15;4.50;;;;;;;6.71;78.30;96669.63;5087247;28;20048;-75
2021/10/15 01:46:19;;;;;;;7.78;4.20;;;;;;;6.72;78.33;96668.53;5086936;28;20059;-75
2021/10/15 01:48:45;;;;;;;5.13;3.83;;;;;;;6.75;77.81;96663.38;5086961;28;20036;-75
2021/10/15 01:51:12;;;;;;;6.60;3.67;;;;;;;6.76;77.38;96653.34;5087047;28;20094;-74
2021/10/15 01:53:40;;;;;;;5.43;4.22;;;;;;;6.72;77.14;96655.81;5086928;28;20040;-74
2021/10/15 01:56:08;;;;;;;5.20;3.92;;;;;;;6.69;77.19;96655.59;5086869;28;20036;-74
2021/10/15 01:58:35;;;;;;;6.00;4.05;;;;;;;6.66;77.02;96648.03;5090299;28;20044;-75
2021/10/15 02:01:01;;;;;;;6.07;3.97;;;;;;;6.66;76.75;96653.44;5086632;28;20047;-75
2021/10/15 02:03:28;;;;;;;6.55;3.78;;;;;;;6.62;76.93;96646.97;5086484;28;20066;-75
2021/10/15 02:05:54;;;;;;;6.57;4.38;;;;;;;6.56;77.73;96645.41;5086765;28;20044;-75
2021/10/15 02:08:21;;;;;;;6.30;4.22;;;;;;;6.50;78.22;96650.88;5086924;28;20051;-75
2021/10/15 02:10:47;;;;;;;6.72;4.32;;;;;;;6.48;78.45;96642.25;5086590;28;20051;-75
2021/10/15 02:13:15;;;;;;;6.57;4.30;;;;;;;6.43;78.46;96639.59;5087391;28;20048;-74
2021/10/15 02:15:41;;;;;;;6.53;4.20;;;;;;;6.40;78.56;96642.84;5086180;28;20048;-76
2021/10/15 02:18:08;;;;;;;5.13;3.90;;;;;;;6.37;78.41;96639.88;5087469;28;20044;-74
2021/10/15 02:20:34;;;;;;;5.47;4.10;;;;;;;6.34;78.43;96629.66;5090894;28;20048;-74
2021/10/15 02:23:01;;;;;;;6.95;4.10;;;;;;;6.31;78.78;96631.00;5091272;28;20044;-76
2021/10/15 02:25:29;;;;;;;6.22;4.30;;;;;;;6.29;78.78;96627.78;5090317;28;20075;-76
2021/10/15 02:27:56;;;;;;;8.75;4.65;;;;;;;6.27;78.60;96622.69;5094215;28;20054;-75
2021/10/15 02:30:24;;;;;;;7.05;4.80;;;;;;;6.26;78.82;96631.06;5090045;28;20048;-74
2021/10/15 02:32:51;;;;;;;7.20;4.50;;;;;;;6.29;78.88;96627.78;5090229;28;20052;-74
2021/10/15 02:35:18;;;;;;;7.05;4.40;;;;;;;6.32;78.17;96626.41;5090316;28;20063;-74
2021/10/15 02:37:45;;;;;;;8.73;4.40;;;;;;;6.31;77.88;96627.50;5090060;28;20562;-74
2021/10/15 02:40:13;;;;;;;7.38;4.55;;;;;;;6.30;77.48;96628.59;5090429;28;20044;-74
2021/10/15 02:42:40;;;;;;;5.25;4.05;;;;;;;6.29;77.95;96627.78;5089941;28;20495;-74
2021/10/15 02:45:07;;;;;;;6.85;3.78;;;;;;;6.31;76.88;96625.59;5090381;28;20043;-74
2021/10/15 02:47:35;;;;;;;5.75;3.83;;;;;;;6.23;77.01;96628.94;5090497;28;20043;-74
2021/10/15 02:50:02;;;;;;;7.55;4.30;;;;;;;6.17;76.83;96616.56;5090125;28;20047;-74
2021/10/15 02:52:28;;;;;;;8.50;3.95;;;;;;;6.08;77.37;96616.34;5090643;28;20419;-74
2021/10/15 02:54:55;;;;;;;5.93;4.22;;;;;;;6.04;77.33;96617.19;5089622;28;20048;-74
2021/10/15 02:57:21;;;;;;;7.25;4.10;;;;;;;6.01;77.90;96610.47;5093366;28;20051;-75
2021/10/15 02:59:48;;;;;;;6.95;3.92;;;;;;;6.00;77.98;96609.66;5075149;28;20070;-75
2021/10/15 03:02:15;;;;;;;5.25;4.05;;;;;;;6.01;77.88;96600.44;5070126;28;20744;-74
2021/10/15 03:04:43;;;;;;;5.75;4.20;;;;;;;6.00;78.38;96598.84;5070215;28;20045;-75
2021/10/15 03:07:09;;;;;;;7.10;4.72;;;;;;;5.97;78.47;96598.59;5070070;28;20040;-75
2021/10/15 03:09:36;;;;;;;10.45;4.32;;;;;;;5.96;78.39;96597.78;5069197;28;20792;-74
2021/10/15 03:12:02;;;;;;;7.97;4.53;;;;;;;5.93;78.18;96590.22;5069722;28;20503;-73
2021/10/15 03:14:29;;;;;;;6.53;4.50;;;;;;;5.89;78.11;96597.25;5069523;28;20052;-74
2021/10/15 03:16:55;;;;;;;9.55;4.40;;;;;;;5.90;78.27;96598.88;5069713;28;20056;-74
2021/10/15 03:19:21;;;;;;;13.23;4.75;;;;;;;5.90;78.36;96598.06;5069467;28;20055;-75
2021/10/15 03:21:49;;;;;;;10.88;4.55;;;;;;;5.89;78.43;96602.66;5069271;28;20049;-74
2021/10/15 03:24:16;;;;;;;10.05;4.63;;;;;;;5.85;78.89;96606.22;5069650;28;20051;-74
2021/10/15 03:26:42;;;;;;;6.47;4.45;;;;;;;5.83;78.66;96601.09;5069245;28;20052;-74
2021/10/15 03:29:09;;;;;;;9.38;4.22;;;;;;;5.80;78.87;96603.56;5081381;28;20041;-75
2021/10/15 03:31:36;;;;;;;6.20;4.30;;;;;;;5.76;78.63;96597.91;5068705;28;20084;-75
2021/10/15 03:34:03;;;;;;;7.97;4.10;;;;;;;5.76;78.62;96608.72;5069089;28;20048;-75
2021/10/15 03:36:29;;;;;;;7.88;4.65;;;;;;;5.75;78.43;96601.69;5068976;28;20095;-75
2021/10/15 03:38:57;;;;;;;7.40;4.50;;;;;;;5.80;77.77;96598.97;5069375;28;20048;-75
2021/10/15 03:41:23;;;;;;;6.32;3.85;;;;;;;5.80;77.29;96612.47;5068660;28;20052;-75
2021/10/15 03:43:50;;;;;;;7.80;3.70;;;;;;;5.68;76.95;96618.19;5069007;28;20056;-75
2021/10/15 03:46:16;;;;;;;5.05;3.65;;;;;;;5.61;77.36;96612.31;5068894;28;20408;-74
2021/10/15 03:48:43;;;;;;;7.43;4.30;;;;;;;5.53;77.93;96603.97;5068755;28;20048;-74
2021/10/15 03:51:09;;;;;;;6.18;4.30;;;;;;;5.46;78.27;96602.41;5069017;28;20043;-74
2021/10/15 03:53:36;;;;;;;9.38;5.57;;;;;;;5.43;78.51;96600.28;5071047;28;20046;-74
2021/10/15 03:56:04;;;;;;;6.70;4.30;;;;;;;5.40;78.97;96606.22;5087874;28;20415;-74
2021/10/15 03:58:31;;;;;;;6.55;4.20;;;;;;;5.40;78.93;96597.31;5091001;28;20040;-75
2021/10/15 04:00:57;;;;;;;7.22;4.53;;;;;;;5.38;78.62;96586.81;5088865;28;20040;-75
2021/10/15 04:03:24;;;;;;;6.50;4.30;;;;;;;5.32;79.09;96585.19;5088887;28;20043;-76
2021/10/15 04:05:50;;;;;;;7.20;4.57;;;;;;;5.29;79.06;96580.38;5088691;28;20051;-75
2021/10/15 04:08:16;;;;;;;13.43;4.47;;;;;;;5.30;79.13;96583.88;5088927;28;20510;-74
2021/10/15 04:10:43;;;;;;;7.18;4.53;;;;;;;5.31;79.36;96577.38;5088346;28;20051;-75
2021/10/15 04:13:11;;;;;;;7.00;4.32;;;;;;;5.32;79.48;96576.28;5088807;28;20040;-74
2021/10/15 04:15:37;;;;;;;8.23;4.43;;;;;;;5.34;79.47;96574.13;5087527;28;20059;-74
2021/10/15 04:18:04;;;;;;;6.85;4.20;;;;;;;5.34;79.33;96574.13;5088834;28;20047;-74
2021/10/15 04:20:30;;;;;;;7.75;4.20;;;;;;;5.32;79.30;96566.28;5088285;28;20051;-75
2021/10/15 04:22:57;;;;;;;6.63;4.00;;;;;;;5.30;79.21;96568.47;5088667;28;20039;-75
2021/10/15 04:25:23;;;;;;;6.00;3.88;;;;;;;5.30;79.12;96563.06;5087893;28;20048;-75
2021/10/15 04:27:50;;;;;;;8.85;5.07;;;;;;;5.32;79.24;96566.28;5092191;28;20054;-74
2021/10/15 04:30:18;;;;;;;8.70;4.45;;;;;;;5.34;79.61;96561.44;5087666;28;20046;-75
2021/10/15 04:32:44;;;;;;;6.35;4.00;;;;;;;5.35;79.39;96565.75;5088144;28;20043;-75
2021/10/15 04:35:12;;;;;;;6.55;4.03;;;;;;;5.33;79.15;96557.13;5088248;28;20044;-75
2021/10/15 04:37:39;;;;;;;11.73;4.20;;;;;;;5.34;79.45;96550.63;5087826;28;20514;-74
2021/10/15 04:40:06;;;;;;;6.35;4.25;;;;;;;5.34;79.50;96541.72;5088402;28;20056;-74
2021/10/15 04:42:33;;;;;;;6.47;4.20;;;;;;;5.34;79.53;96537.13;5087269;28;20047;-74
2021/10/15 04:44:59;;;;;;;5.40;3.70;;;;;;;5.38;79.59;96540.09;5088374;28;20044;-73
2021/10/15 04:47:27;;;;;;;8.52;4.05;;;;;;;5.41;79.22;96540.31;5087247;28;20062;-73
2021/10/15 04:49:54;;;;;;;6.18;3.80;;;;;;;5.42;79.51;96539.22;5088589;28;20043;-74
2021/10/15 04:52:20;;;;;;;6.47;4.07;;;;;;;5.39;79.10;96523.59;5088118;28;20040;-73
2021/10/15 04:54:47;;;;;;;6.10;3.90;;;;;;;5.34;79.03;96523.63;5087809;28;20608;-74
2021/10/15 04:57:13;;;;;;;6.25;3.70;;;;;;;5.37;79.46;96522.25;5085670;28;20040;-74
2021/10/15 04:59:40;;;;;;;6.15;3.88;;;;;;;5.42;79.03;96522.22;5067504;28;20139;-75
2021/10/15 05:02:06;;;;;;;4.95;3.38;;;;;;;5.41;79.06;96521.41;5067931;28;20052;-74
2021/10/15 05:04:34;;;;;;;5.82;3.67;;;;;;;5.39;78.80;96526.31;5067279;28;20041;-74
2021/10/15 05:07:00;;;;;;;8.40;3.80;;;;;;;5.36;79.04;96524.16;5067874;28;20500;-73
2021/10/15 05:09:35;;;;;;;8.40;4.90;;;;;;;5.35;79.21;96521.75;5066602;28;20503;-73
2021/10/15 05:12:04;;;;;;;7.35;4.18;;;;;;;5.36;79.45;96518.75;5067897;28;20495;-71
2021/10/15 05:14:32;;;;;;;6.22;4.00;;;;;;;5.33;79.41;96508.53;5067318;28;20407;-73
2021/10/15 05:16:59;;;;;;;6.75;4.15;;;;;;;5.31;79.23;96510.69;5067588;28;20122;-73
2021/10/15 05:19:26;;;;;;;11.38;4.00;;;;;;;5.34;79.04;96515.53;5084367;28;20067;-73
2021/10/15 05:21:53;;;;;;;6.93;3.78;;;;;;;5.40;78.41;96519.81;5087191;28;20062;-73
2021/10/15 05:24:20;;;;;;;9.07;3.97;;;;;;;5.32;77.69;96519.59;5087746;28;20419;-73
2021/10/15 05:26:46;;;;;;;7.38;3.70;;;;;;;5.34;78.42;96520.94;5086263;28;20050;-73
2021/10/15 05:29:13;;;;;;;5.07;3.50;;;;;;;5.30;78.42;96513.66;5086345;28;20048;-75
2021/10/15 05:31:39;;;;;;;8.25;3.60;;;;;;;5.29;78.58;96514.75;5085668;28;20055;-73
2021/10/15 05:34:06;;;;;;;6.00;3.45;;;;;;;5.30;78.97;96509.06;5085025;28;20059;-73
2021/10/15 05:36:32;;;;;;;6.22;3.78;;;;;;;5.37;77.88;96508.75;5085894;28;20458;-74
2021/10/15 05:39:00;;;;;;;4.25;2.80;;;;;;;5.32;76.66;96503.38;5085703;28;20045;-73
2021/10/15 05:41:27;;;;;;;7.50;3.30;;;;;;;5.25;77.41;96509.09;5085832;28;20050;-73
2021/10/15 05:43:53;;;;;;;5.20;3.20;;;;;;;5.24;77.06;96512.91;5087337;28;20411;-73
2021/10/15 05:46:20;;;;;;;4.80;3.30;;;;;;;5.19;76.56;96510.22;5087361;28;20048;-73
2021/10/15 05:48:46;;;;;;;5.28;3.40;;;;;;;5.10;76.88;96509.19;5087000;28;20051;-73
2021/10/15 05:51:13;;;;;;;9.63;3.35;;;;;;;5.04;77.47;96508.41;5087437;28;20040;-73
2021/10/15 05:53:40;;;;;;;6.13;4.00;;;;;;;5.00;78.08;96498.44;5087617;28;20631;-73
2021/10/15 05:56:24;;;;;;;5.57;3.65;;;;;;;5.03;79.39;96503.31;5091257;28;20048;-75
2021/10/15 05:58:50;;;;;;;9.40;4.32;;;;;;;5.06;80.22;96506.25;5091984;28;20051;-74
2021/10/15 06:01:19;;;;;;;12.88;5.82;;;;;;;5.13;80.38;96503.25;5091139;28;20060;-73
2021/10/15 06:03:50;;;;;;;10.15;4.43;;;;;;;5.21;80.39;96497.25;5091660;28;20056;-73
2021/10/15 06:14:44;;;;;;;8.43;4.10;;;;;;;5.53;80.70;96494.03;5090935;28;20177;-73
2021/10/15 06:17:12;;;;;;;7.07;4.05;;;;;;;5.62;80.27;96486.16;5090871;28;20071;-72
2021/10/15 06:19:45;;;;;;;6.43;3.70;;;;;;;5.65;79.65;96485.59;5090735;28;20123;-73
2021/10/15 06:22:12;;;;;;;5.70;3.47;;;;;;;5.73;79.93;96484.97;5091125;28;20145;-73
2021/10/15 06:24:39;;;;;;;10.40;3.50;;;;;;;5.81;79.56;96492.47;5090717;28;20051;-73
2021/10/15 06:27:07;;;;;;;5.32;3.65;;;;;;;5.90;80.00;96485.38;5090667;28;20040;-73
2021/10/15 06:29:33;;;;;;;7.25;3.88;;;;;;;5.97;79.69;96491.28;5090384;28;20056;-73
2021/10/15 06:32:00;;;;;;;7.45;4.70;;;;;;;6.05;79.04;96480.94;5090179;28;20056;-72
2021/10/15 06:34:26;;;;;;;5.35;3.70;;;;;;;6.08;77.97;96486.56;5089675;28;20048;-73
2021/10/15 06:36:53;;;;;;;5.80;3.30;;;;;;;6.13;77.97;96483.00;5090056;28;20044;-72
2021/10/15 06:39:19;;;;;;;8.27;3.80;;;;;;;6.17;78.36;96487.56;5089725;28;20051;-73
2021/10/15 06:41:46;;;;;;;7.35;3.75;;;;;;;6.24;77.94;96489.94;5090321;28;20051;-73
2021/10/15 06:44:14;;;;;;;5.95;3.53;;;;;;;6.24;77.60;96484.50;5090379;28;20051;-72
2021/10/15 06:46:40;;;;;;;6.78;3.50;;;;;;;6.19;77.75;96487.28;5089799;28;20521;-72
2021/10/15 06:49:09;;;;;;;8.20;3.33;;;;;;;6.22;78.02;96489.41;5090343;28;20052;-73
2021/10/15 06:51:35;;;;;;;4.43;3.13;;;;;;;6.25;77.69;96496.94;5089930;28;20391;-73
2021/10/15 06:54:02;;;;;;;5.50;3.30;;;;;;;6.25;78.07;96494.25;5089636;28;20055;-74
2021/10/15 06:56:29;;;;;;;6.47;3.25;;;;;;;6.24;77.54;96498.84;5090048;28;20052;-73
2021/10/15 06:58:56;;;;;;;7.55;3.60;;;;;;;6.27;78.02;96511.00;5090476;28;20048;-73
2021/10/15 07:01:23;;;;;;;7.40;3.20;;;;;;;6.34;77.93;96500.63;5089548;28;20047;-73
2021/10/15 07:03:50;;;;;;;5.30;3.35;;;;;;;6.41;78.26;96503.78;5089389;28;20056;-74
2021/10/15 07:06:17;;;;;;;6.18;3.05;;;;;;;6.48;78.43;96506.97;5089535;28;20048;-73
2021/10/15 07:08:43;;;;;;;4.85;3.28;;;;;;;6.63;78.29;96499.75;5088726;28;20055;-73
2021/10/15 07:11:10;;;;;;;4.57;2.67;;;;;;;6.66;77.25;96508.13;5089344;28;20049;-73
2021/10/15 07:13:36;;;;;;;5.38;2.70;;;;;;;6.64;76.07;96504.09;5088708;28;20080;-73
2021/10/15 07:16:03;;;;;;;4.60;2.72;;;;;;;6.66;76.74;96508.13;5089239;28;20044;-72
2021/10/15 07:18:31;;;;;;;5.90;2.90;;;;;;;6.70;75.90;96514.56;5088732;28;20054;-72
2021/10/15 07:20:57;;;;;;;6.07;3.03;;;;;;;6.75;76.18;96505.59;5089749;28;20059;-73
2021/10/15 07:23:24;;;;;;;4.78;2.90;;;;;;;6.82;76.10;96500.63;5088711;28;20057;-73
2021/10/15 07:25:50;;;;;;;4.45;2.70;;;;;;;6.97;77.10;96505.03;5089699;28;20051;-74
2021/10/15 07:28:17;;;;;;;4.43;2.88;;;;;;;7.07;76.18;96503.00;5089911;28;20044;-73
2021/10/15 07:30:44;;;;;;;4.55;2.95;;;;;;;7.16;76.11;96503.16;5089470;28;20043;-73
2021/10/15 07:33:11;;;;;;;3.90;2.80;;;;;;;7.30;75.72;96511.34;5089225;28;20047;-73
2021/10/15 07:35:39;;;;;;;4.43;2.60;;;;;;;7.42;75.40;96506.31;5088961;28;20040;-73
2021/10/15 07:38:05;;;;;;;5.28;2.80;;;;;;;7.52;74.83;96503.44;5089153;28;20040;-74
2021/10/15 07:40:32;;;;;;;5.22;2.63;;;;;;;7.64;74.41;96507.59;5088784;28;20052;-74
2021/10/15 07:42:59;;;;;;;4.60;2.40;;;;;;;7.75;74.50;96506.34;5089502;28;20044;-73
2021/10/15 07:45:26;;;;;;;4.60;2.67;;;;;;;7.84;73.58;96509.97;5088423;28;20048;-73
2021/10/15 07:47:53;;;;;;;4.60;2.25;;;;;;;7.93;73.52;96507.38;5088862;28;20127;-75
2021/10/15 07:50:19;;;;;;;4.80;2.30;;;;;;;7.98;73.42;96499.16;5088525;28;20059;-73
2021/10/15 07:52:47;;;;;;;4.28;2.20;;;;;;;8.08;73.05;96504.41;5088830;28;20044;-73
2021/10/15 07:55:14;;;;;;;4.35;2.47;;;;;;;8.19;73.39;96505.03;5088620;28;20048;-73
2021/10/15 07:57:41;;;;;;;4.35;2.50;;;;;;;8.49;72.23;96499.06;5088732;28;20055;-74
2021/10/15 08:00:09;;;;;;;3.70;2.47;;;;;;;9.15;71.35;96515.94;5089057;28;20052;-74
2021/10/15 08:02:36;;;;;;;2.42;1.40;;;;;;;9.41;65.37;96502.59;5088484;28;20052;-73
2021/10/15 08:05:04;;;;;;;5.53;1.60;;;;;;;9.38;65.59;96512.16;5088979;28;20496;-74
2021/10/15 08:07:31;;;;;;;3.20;1.70;;;;;;;9.41;66.00;96502.59;5088593;28;20048;-73
2021/10/15 08:09:59;;;;;;;4.10;1.63;;;;;;;9.70;66.46;96509.53;5089247;28;20063;-74
2021/10/15 08:12:25;;;;;;;3.55;1.40;;;;;;;9.86;65.58;96510.78;5088455;28;20046;-75
2021/10/15 08:14:52;;;;;;;2.47;1.52;;;;;;;9.79;64.25;96513.13;5088842;28;20130;-74
2021/10/15 08:17:18;;;;;;;5.13;1.60;;;;;;;9.78;65.24;96506.09;5087679;28;20665;-74
2021/10/15 08:19:45;;;;;;;4.40;1.73;;;;;;;9.76;63.95;96508.31;5088467;28;20526;-74
2021/10/15 08:22:11;;;;;;;3.65;1.70;;;;;;;9.81;64.13;96516.34;5088165;28;20044;-73
2021/10/15 08:24:38;;;;;;;3.22;1.60;;;;;;;9.81;65.01;96516.34;5088179;28;20056;-73
2021/10/15 08:27:06;;;;;;;4.35;1.90;;;;;;;9.81;65.47;96517.13;5088875;28;20070;-74
2021/10/15 08:29:37;;;;;;;4.15;2.30;;;;;;;9.66;64.41;96509.38;5088669;28;20064;-73
2021/10/15 08:32:04;;;;;;;3.08;1.63;;;;;;;9.59;64.20;96507.06;5088164;28;20068;-73
2021/10/15 08:34:31;;;;;;;3.42;1.80;;;;;;;9.71;65.49;96505.69;5088448;28;20151;-74
2021/10/15 08:36:57;;;;;;;2.58;1.77;;;;;;;9.80;66.37;96506.56;5088655;28;20063;-74
2021/10/15 08:39:26;;;;;;;2.78;1.95;;;;;;;9.71;64.47;96509.25;5088092;28;20051;-74
2021/10/15 08:41:53;;;;;;;4.07;1.77;;;;;;;9.80;64.48;96503.84;5088799;28;20797;-74
2021/10/15 08:44:21;;;;;;;3.75;1.90;;;;;;;9.89;64.56;96502.81;5088498;28;20055;-73
2021/10/15 08:46:47;;;;;;;8.40;2.05;;;;;;;9.96;63.96;96502.38;5089109;28;20040;-74
2021/10/15 08:49:14;;;;;;;3.47;1.88;;;;;;;10.06;65.79;96502.09;5088330;28;20048;-74
2021/10/15 08:51:40;;;;;;;4.10;2.25;;;;;;;10.09;65.03;96501.50;5087575;28;20050;-74
2021/10/15 08:54:07;;;;;;;3.35;1.70;;;;;;;10.18;65.54;96499.66;5088215;28;20048;-74
2021/10/15 08:56:35;;;;;;;5.82;2.13;;;;;;;10.42;64.64;96503.94;5088199;28;20040;-73
2021/10/15 08:59:03;;;;;;;3.88;1.95;;;;;;;10.70;64.19;96505.38;5087862;28;20046;-72
2021/10/15 09:01:40;;;;;;;5.22;2.00;;;;;;;10.77;61.83;96504.09;5087782;28;20411;-74
2021/10/15 09:04:07;;;;;;;3.92;1.80;;;;;;;10.77;61.72;96496.72;5086920;28;20411;-73
2021/10/15 09:06:35;;;;;;;2.92;2.03;;;;;;;10.90;62.02;96503.97;5088556;28;20588;-74
2021/10/15 09:09:03;;;;;;;3.20;2.28;;;;;;;10.94;61.71;96501.41;5086978;28;20051;-75
2021/10/15 09:11:32;;;;;;;3.65;1.83;;;;;;;10.88;63.00;96510.84;5088531;28;20040;-74
2021/10/15 09:14:08;;;;;;;3.47;2.17;;;;;;;10.77;61.64;96504.09;5087473;28;20052;-73
2021/10/15 09:17:03;;;;;;;3.85;2.38;;;;;;;10.85;63.68;96495.13;5088259;28;20048;-75
2021/10/15 09:19:32;;;;;;;5.47;2.30;;;;;;;10.84;63.35;96501.72;5087996;28;20048;-73
2021/10/15 09:22:23;;;;;;;4.70;2.25;;;;;;;10.88;62.73;96494.50;5087348;28;20410;-74
2021/10/15 09:24:53;;;;;;;4.07;2.60;;;;;;;10.91;64.20;96494.69;5080644;28;20056;-76
2021/10/15 09:27:26;;;;;;;4.95;2.63;;;;;;;10.96;63.14;96496.44;5087047;28;20048;-73
2021/10/15 09:29:56;;;;;;;3.90;2.38;;;;;;;11.04;62.59;96492.16;5087828;28;20607;-74
2021/10/15 09:32:26;;;;;;;3.85;2.20;;;;;;;11.18;63.80;96492.84;5087020;28;20055;-73
2021/10/15 09:34:54;;;;;;;4.30;2.22;;;;;;;11.28;61.98;96497.97;5087111;28;20551;-73
2021/10/15 09:37:23;;;;;;;4.43;2.40;;;;;;;11.23;62.49;96487.22;5087677;28;20075;-73
2021/10/15 09:39:51;;;;;;;4.80;2.60;;;;;;;11.43;63.16;96491.22;5094932;28;20039;-73
2021/10/15 09:42:20;;;;;;;7.57;2.40;;;;;;;11.63;61.58;96497.97;5108175;28;20048;-73
2021/10/15 09:44:47;;;;;;;4.00;2.40;;;;;;;11.67;61.97;96494.28;5107583;28;20036;-73
2021/10/15 09:47:18;;;;;;;3.50;2.22;;;;;;;11.83;59.68;96497.38;5107833;28;20043;-73
2021/10/15 09:50:05;;;;;;;4.55;2.40;;;;;;;11.88;59.33;96493.66;5107432;28;20056;-74
2021/10/15 09:52:35;;;;;;;4.95;2.40;;;;;;;12.03;59.30;96495.91;5107287;28;20042;-73
2021/10/15 09:55:06;;;;;;;5.95;2.20;;;;;;;12.18;58.79;96489.94;5107588;28;20048;-72
2021/10/15 09:57:36;;;;;;;4.07;2.28;;;;;;;12.38;59.24;96493.09;5104257;28;20047;-74
2021/10/15 10:00:07;;;;;;;3.15;2.22;;;;;;;12.54;58.81;96477.78;5087490;28;20064;-75
2021/10/15 10:02:34;;;;;;;4.85;2.40;;;;;;;12.61;57.45;96483.53;5086936;28;20052;-74
2021/10/15 10:05:02;;;;;;;3.72;2.20;;;;;;;12.65;58.91;96483.69;5087803;28;20055;-74
2021/10/15 10:07:30;;;;;;;3.75;2.63;;;;;;;12.59;57.39;96483.06;5086257;28;20047;-73
2021/10/15 10:09:56;;;;;;;3.60;2.05;;;;;;;12.60;57.67;96479.19;5087325;28;20456;-74
2021/10/15 10:12:23;;;;;;;3.40;2.20;;;;;;;12.59;58.32;96480.34;5086799;28;20044;-73
2021/10/15 10:14:49;;;;;;;4.38;2.25;;;;;;;12.69;56.37;96476.44;5102278;27;20263;-74
2021/10/15 10:17:21;;;;;;;6.10;2.85;;;;;;;12.68;57.11;96475.63;5107290;27;20044;-73
2021/10/15 10:19:51;;;;;;;4.22;2.58;;;;;;;12.78;57.08;96477.19;5107388;28;20044;-73
2021/10/15 10:22:19;;;;;;;6.90;2.83;;;;;;;12.86;56.83;96483.75;5107544;27;20058;-74
2021/10/15 10:24:52;;;;;;;4.95;2.67;;;;;;;12.93;57.44;96473.09;5107164;28;20127;-73
2021/10/15 10:27:30;;;;;;;3.95;2.22;;;;;;;13.01;55.56;96470.31;5107776;27;20530;-73
2021/10/15 10:29:57;;;;;;;5.30;2.70;;;;;;;13.01;56.84;96470.31;5107183;28;20055;-74
2021/10/15 10:32:25;;;;;;;7.95;2.70;;;;;;;13.05;56.47;96475.94;5106883;28;20510;-73
2021/10/15 10:34:53;;;;;;;4.28;3.00;;;;;;;13.15;56.79;96478.25;5107536;28;20059;-74
2021/10/15 10:37:21;;;;;;;6.07;2.70;;;;;;;13.16;55.61;96479.88;5106432;28;20063;-74
2021/10/15 10:40:06;;;;;;;5.82;3.08;;;;;;;13.25;56.72;96463.44;5109093;28;20055;-75
2021/10/15 10:42:33;;;;;;;5.93;3.10;;;;;;;13.22;57.41;96464.91;5110719;28;20059;-74
2021/10/15 10:45:13;;;;;;;4.38;2.60;;;;;;;13.12;55.93;96470.75;5111434;28;20048;-74
2021/10/15 10:48:00;;;;;;;4.00;3.10;;;;;;;13.14;55.79;96465.72;5110194;28;20039;-73
2021/10/15 10:50:27;;;;;;;5.35;3.22;;;;;;;13.03;56.63;96469.97;5110871;28;20055;-74
2021/10/15 10:53:08;;;;;;;5.50;3.47;;;;;;;13.04;57.67;96468.84;5111092;28;20043;-80
2021/10/15 10:55:41;;;;;;;5.13;2.97;;;;;;;13.04;57.01;96463.38;5110267;27;20039;-74
2021/10/15 10:58:34;;;;;;;5.13;3.30;;;;;;;13.14;57.47;96468.47;5111287;27;20044;-73
2021/10/15 11:01:21;;;;;;;6.67;3.50;;;;;;;13.31;56.50;96462.94;5110100;28;20043;-75
2021/10/15 11:03:48;;;;;;;6.28;3.08;;;;;;;13.43;56.74;96458.66;5110525;27;20862;-73
2021/10/15 11:06:14;;;;;;;4.82;3.28;;;;;;;13.51;56.12;96465.97;5110237;28;20040;-77
2021/10/15 11:08:42;;;;;;;7.53;3.15;;;;;;;13.65;58.15;96461.03;5110140;28;20781;-73
2021/10/15 11:11:44;;;;;;;5.88;3.55;;;;;;;13.77;55.56;96458.34;5110100;28;20214;-74
2021/10/15 11:14:51;;;;;;;5.53;3.55;;;;;;;13.71;54.63;96459.69;5105022;27;20040;-74
2021/10/15 11:17:20;;;;;;;5.68;3.55;;;;;;;13.63;55.13;96457.06;5109555;28;20055;-74
2021/10/15 11:19:47;;;;;;;5.50;3.47;;;;;;;13.77;56.57;96454.81;5110299;28;20047;-73
2021/10/15 11:22:14;;;;;;;6.05;3.20;;;;;;;13.83;53.58;96448.81;5109314;27;20043;-74
2021/10/15 11:24:54;;;;;;;6.15;3.33;;;;;;;13.90;54.91;96444.72;5110762;28;20047;-75
2021/10/15 11:27:21;;;;;;;6.45;3.38;;;;;;;13.99;53.66;96439.94;5109920;28;20051;-74
2021/10/15 11:29:53;;;;;;;5.38;3.17;;;;;;;14.01;52.41;96432.22;5110402;28;20047;-74
2021/10/15 11:32:33;;;;;;;8.10;4.20;;;;;;;13.96;52.25;96426.94;5109272;28;20516;-73
2021/10/15 11:35:12;;;;;;;6.68;3.50;;;;;;;14.02;53.33;96420.13;5109610;27;20127;-73
2021/10/15 11:37:44;;;;;;;5.65;3.20;;;;;;;14.13;52.17;96426.75;5110055;28;20498;-74
2021/10/15 11:40:17;;;;;;;6.03;3.50;;;;;;;14.18;50.54;96418.31;5108815;28;20058;-74
2021/10/15 11:42:43;;;;;;;5.95;3.42;;;;;;;14.18;52.51;96415.59;5110320;28;20054;-74
2021/10/15 11:45:28;;;;;;;4.72;3.40;;;;;;;14.30;52.82;96421.09;5108576;28;20505;-73
2021/10/15 11:48:04;;;;;;;7.72;3.50;;;;;;;14.41;50.78;96415.16;5109987;28;20044;-74
2021/10/15 11:50:43;;;;;;;5.78;3.63;;;;;;;14.55;51.22;96405.50;5109745;28;20050;-74
2021/10/15 11:53:11;;;;;;;5.20;3.33;;;;;;;14.63;51.43;96400.25;5108874;28;20040;-74